sensor_id;sensor_type;location;lat;lon;timestamp;P1;durP1;ratioP1;P2;durP2;ratioP2
61003;SDS011;46889;37.310;13.582;2022-11-20T00:00:25;8.83;;;1.57;;
61003;SDS011;46889;37.310;13.582;2022-11-20T00:02:51;9.35;;;1.60;;
61003;SDS011;46889;37.310;13.582;2022-11-20T00:05:18;13.00;;;1.52;;
61003;SDS011;46889;37.310;13.582;2022-11-20T00:07:45;8.85;;;1.80;;
61003;SDS011;46889;37.310;13.582;2022-11-20T00:10:12;7.82;;;1.20;;
61003;SDS011;46889;37.310;13.582;2022-11-20T00:15:04;6.85;;;1.42;;
61003;SDS011;46889;37.310;13.582;2022-11-20T00:17:31;7.35;;;1.30;;
61003;SDS011;46889;37.310;13.582;2022-11-20T00:19:57;7.93;;;1.20;;
61003;SDS011;46889;37.310;13.582;2022-11-20T00:22:23;11.43;;;1.20;;
61003;SDS011;46889;37.310;13.582;2022-11-20T00:24:49;9.25;;;1.67;;
61003;SDS011;46889;37.310;13.582;2022-11-20T00:27:15;7.53;;;1.30;;
61003;SDS011;46889;37.310;13.582;2022-11-20T00:29:41;4.82;;;1.25;;
61003;SDS011;46889;37.310;13.582;2022-11-20T00:32:07;8.55;;;1.25;;
61003;SDS011;46889;37.310;13.582;2022-11-20T00:34:33;8.63;;;1.58;;
61003;SDS011;46889;37.310;13.582;2022-11-20T00:36:59;6.57;;;1.10;;
61003;SDS011;46889;37.310;13.582;2022-11-20T00:39:25;9.07;;;1.27;;
61003;SDS011;46889;37.310;13.582;2022-11-20T00:41:51;5.75;;;1.13;;
61003;SDS011;46889;37.310;13.582;2022-11-20T00:44:17;9.02;;;1.45;;
61003;SDS011;46889;37.310;13.582;2022-11-20T00:46:43;8.17;;;1.03;;
61003;SDS011;46889;37.310;13.582;2022-11-20T00:49:09;8.93;;;1.07;;
61003;SDS011;46889;37.310;13.582;2022-11-20T00:51:35;7.75;;;1.30;;
61003;SDS011;46889;37.310;13.582;2022-11-20T00:54:01;9.67;;;1.40;;
61003;SDS011;46889;37.310;13.582;2022-11-20T00:56:27;9.13;;;1.10;;
61003;SDS011;46889;37.310;13.582;2022-11-20T00:58:54;7.70;;;1.42;;
61003;SDS011;46889;37.310;13.582;2022-11-20T01:01:21;4.82;;;0.73;;
61003;SDS011;46889;37.310;13.582;2022-11-20T01:03:52;7.95;;;1.48;;
61003;SDS011;46889;37.310;13.582;2022-11-20T01:06:20;11.40;;;1.40;;
61003;SDS011;46889;37.310;13.582;2022-11-20T01:08:47;5.78;;;1.70;;
61003;SDS011;46889;37.310;13.582;2022-11-20T01:11:15;7.13;;;1.70;;
61003;SDS011;46889;37.310;13.582;2022-11-20T01:13:44;8.27;;;1.10;;
61003;SDS011;46889;37.310;13.582;2022-11-20T01:16:12;5.70;;;1.10;;
61003;SDS011;46889;37.310;13.582;2022-11-20T01:18:42;6.47;;;1.08;;
61003;SDS011;46889;37.310;13.582;2022-11-20T01:21:11;9.65;;;1.10;;
61003;SDS011;46889;37.310;13.582;2022-11-20T01:23:41;8.65;;;1.10;;
61003;SDS011;46889;37.310;13.582;2022-11-20T01:26:12;5.88;;;0.90;;
61003;SDS011;46889;37.310;13.582;2022-11-20T01:28:40;7.43;;;1.15;;
61003;SDS011;46889;37.310;13.582;2022-11-20T01:31:11;8.43;;;1.02;;
61003;SDS011;46889;37.310;13.582;2022-11-20T01:33:42;5.30;;;0.93;;
61003;SDS011;46889;37.310;13.582;2022-11-20T01:36:09;8.70;;;1.17;;
61003;SDS011;46889;37.310;13.582;2022-11-20T01:38:36;7.03;;;1.00;;
61003;SDS011;46889;37.310;13.582;2022-11-20T01:41:03;9.02;;;1.30;;
61003;SDS011;46889;37.310;13.582;2022-11-20T01:48:28;10.63;;;1.30;;
61003;SDS011;46889;37.310;13.582;2022-11-20T01:51:01;10.05;;;1.17;;
61003;SDS011;46889;37.310;13.582;2022-11-20T01:53:32;10.85;;;1.08;;
61003;SDS011;46889;37.310;13.582;2022-11-20T01:56:01;9.98;;;1.20;;
61003;SDS011;46889;37.310;13.582;2022-11-20T01:58:32;9.82;;;1.67;;
61003;SDS011;46889;37.310;13.582;2022-11-20T02:01:01;8.95;;;1.33;;
61003;SDS011;46889;37.310;13.582;2022-11-20T02:03:29;6.18;;;1.00;;
61003;SDS011;46889;37.310;13.582;2022-11-20T02:05:56;9.07;;;1.35;;
61003;SDS011;46889;37.310;13.582;2022-11-20T02:08:26;9.98;;;1.42;;
61003;SDS011;46889;37.310;13.582;2022-11-20T02:10:53;7.57;;;1.05;;
61003;SDS011;46889;37.310;13.582;2022-11-20T02:13:19;10.40;;;1.50;;
61003;SDS011;46889;37.310;13.582;2022-11-20T02:16:03;8.18;;;1.30;;
61003;SDS011;46889;37.310;13.582;2022-11-20T02:18:33;8.05;;;1.10;;
61003;SDS011;46889;37.310;13.582;2022-11-20T02:21:02;6.30;;;1.10;;
61003;SDS011;46889;37.310;13.582;2022-11-20T02:23:39;11.73;;;1.50;;
61003;SDS011;46889;37.310;13.582;2022-11-20T02:26:18;7.05;;;1.10;;
61003;SDS011;46889;37.310;13.582;2022-11-20T02:28:46;7.60;;;1.05;;
61003;SDS011;46889;37.310;13.582;2022-11-20T02:31:12;8.30;;;1.20;;
61003;SDS011;46889;37.310;13.582;2022-11-20T02:33:38;8.38;;;0.93;;
61003;SDS011;46889;37.310;13.582;2022-11-20T02:36:04;9.70;;;1.30;;
61003;SDS011;46889;37.310;13.582;2022-11-20T02:38:30;7.50;;;1.17;;
61003;SDS011;46889;37.310;13.582;2022-11-20T02:40:56;5.45;;;0.80;;
61003;SDS011;46889;37.310;13.582;2022-11-20T02:43:23;11.88;;;1.52;;
61003;SDS011;46889;37.310;13.582;2022-11-20T02:45:49;9.38;;;1.50;;
61003;SDS011;46889;37.310;13.582;2022-11-20T02:48:15;12.60;;;1.40;;
61003;SDS011;46889;37.310;13.582;2022-11-20T02:50:41;11.40;;;1.37;;
61003;SDS011;46889;37.310;13.582;2022-11-20T02:53:07;6.47;;;0.88;;
61003;SDS011;46889;37.310;13.582;2022-11-20T02:55:33;10.38;;;0.98;;
61003;SDS011;46889;37.310;13.582;2022-11-20T02:58:00;11.95;;;1.83;;
61003;SDS011;46889;37.310;13.582;2022-11-20T03:00:26;8.65;;;1.25;;
61003;SDS011;46889;37.310;13.582;2022-11-20T03:02:52;7.47;;;1.20;;
61003;SDS011;46889;37.310;13.582;2022-11-20T03:05:18;7.00;;;1.23;;
61003;SDS011;46889;37.310;13.582;2022-11-20T03:07:44;9.63;;;1.43;;
61003;SDS011;46889;37.310;13.582;2022-11-20T03:10:10;8.93;;;1.30;;
61003;SDS011;46889;37.310;13.582;2022-11-20T03:12:36;7.28;;;1.20;;
61003;SDS011;46889;37.310;13.582;2022-11-20T03:15:02;10.43;;;1.67;;
61003;SDS011;46889;37.310;13.582;2022-11-20T03:17:29;6.60;;;1.52;;
61003;SDS011;46889;37.310;13.582;2022-11-20T03:19:56;6.78;;;1.20;;
61003;SDS011;46889;37.310;13.582;2022-11-20T03:22:22;13.68;;;1.15;;
61003;SDS011;46889;37.310;13.582;2022-11-20T03:24:48;9.60;;;1.20;;
61003;SDS011;46889;37.310;13.582;2022-11-20T03:27:14;9.20;;;1.20;;
61003;SDS011;46889;37.310;13.582;2022-11-20T03:29:40;11.03;;;1.30;;
61003;SDS011;46889;37.310;13.582;2022-11-20T03:32:06;7.07;;;1.20;;
61003;SDS011;46889;37.310;13.582;2022-11-20T03:34:32;10.10;;;1.58;;
61003;SDS011;46889;37.310;13.582;2022-11-20T03:36:58;8.67;;;1.10;;
61003;SDS011;46889;37.310;13.582;2022-11-20T03:39:24;13.07;;;1.07;;
61003;SDS011;46889;37.310;13.582;2022-11-20T03:41:51;13.15;;;1.20;;
61003;SDS011;46889;37.310;13.582;2022-11-20T03:44:17;6.67;;;1.30;;
61003;SDS011;46889;37.310;13.582;2022-11-20T03:46:46;7.70;;;1.38;;
61003;SDS011;46889;37.310;13.582;2022-11-20T03:49:12;9.27;;;1.40;;
61003;SDS011;46889;37.310;13.582;2022-11-20T03:51:38;8.45;;;1.20;;
61003;SDS011;46889;37.310;13.582;2022-11-20T03:54:06;11.83;;;1.63;;
61003;SDS011;46889;37.310;13.582;2022-11-20T03:56:34;8.13;;;1.20;;
61003;SDS011;46889;37.310;13.582;2022-11-20T03:59:02;10.30;;;1.10;;
61003;SDS011;46889;37.310;13.582;2022-11-20T04:01:33;5.95;;;1.08;;
61003;SDS011;46889;37.310;13.582;2022-11-20T04:04:00;8.27;;;1.00;;
61003;SDS011;46889;37.310;13.582;2022-11-20T04:06:30;5.28;;;0.88;;
61003;SDS011;46889;37.310;13.582;2022-11-20T04:08:59;5.90;;;0.80;;
61003;SDS011;46889;37.310;13.582;2022-11-20T04:13:55;8.38;;;1.10;;
61003;SDS011;46889;37.310;13.582;2022-11-20T04:16:22;5.28;;;0.73;;
61003;SDS011;46889;37.310;13.582;2022-11-20T04:18:53;9.00;;;1.25;;
61003;SDS011;46889;37.310;13.582;2022-11-20T04:21:20;7.75;;;1.10;;
61003;SDS011;46889;37.310;13.582;2022-11-20T04:23:46;7.70;;;0.90;;
61003;SDS011;46889;37.310;13.582;2022-11-20T04:26:12;10.17;;;0.80;;
61003;SDS011;46889;37.310;13.582;2022-11-20T04:28:38;4.47;;;0.83;;
61003;SDS011;46889;37.310;13.582;2022-11-20T04:31:05;7.97;;;0.90;;
61003;SDS011;46889;37.310;13.582;2022-11-20T04:33:40;8.35;;;0.93;;
61003;SDS011;46889;37.310;13.582;2022-11-20T04:36:07;8.55;;;0.95;;
61003;SDS011;46889;37.310;13.582;2022-11-20T04:38:38;10.35;;;1.25;;
61003;SDS011;46889;37.310;13.582;2022-11-20T04:41:05;4.60;;;0.80;;
61003;SDS011;46889;37.310;13.582;2022-11-20T04:43:32;5.03;;;0.98;;
61003;SDS011;46889;37.310;13.582;2022-11-20T04:48:26;5.78;;;0.75;;
61003;SDS011;46889;37.310;13.582;2022-11-20T04:50:53;6.85;;;0.80;;
61003;SDS011;46889;37.310;13.582;2022-11-20T04:53:19;5.80;;;0.80;;
61003;SDS011;46889;37.310;13.582;2022-11-20T04:55:46;9.93;;;1.20;;
61003;SDS011;46889;37.310;13.582;2022-11-20T04:58:12;7.05;;;0.82;;
61003;SDS011;46889;37.310;13.582;2022-11-20T05:00:38;8.63;;;0.98;;
61003;SDS011;46889;37.310;13.582;2022-11-20T05:03:05;6.22;;;0.90;;
61003;SDS011;46889;37.310;13.582;2022-11-20T05:05:31;6.75;;;0.95;;
61003;SDS011;46889;37.310;13.582;2022-11-20T05:08:00;5.43;;;0.90;;
61003;SDS011;46889;37.310;13.582;2022-11-20T05:10:26;6.77;;;0.77;;
61003;SDS011;46889;37.310;13.582;2022-11-20T05:12:52;8.57;;;1.10;;
61003;SDS011;46889;37.310;13.582;2022-11-20T05:15:19;6.13;;;1.50;;
61003;SDS011;46889;37.310;13.582;2022-11-20T05:17:48;7.53;;;0.93;;
61003;SDS011;46889;37.310;13.582;2022-11-20T05:20:15;5.63;;;1.10;;
61003;SDS011;46889;37.310;13.582;2022-11-20T05:22:42;7.30;;;1.00;;
61003;SDS011;46889;37.310;13.582;2022-11-20T05:25:09;8.35;;;1.13;;
61003;SDS011;46889;37.310;13.582;2022-11-20T05:27:35;5.97;;;0.80;;
61003;SDS011;46889;37.310;13.582;2022-11-20T05:30:02;4.65;;;0.75;;
61003;SDS011;46889;37.310;13.582;2022-11-20T05:32:29;10.70;;;1.52;;
61003;SDS011;46889;37.310;13.582;2022-11-20T05:34:55;9.87;;;1.60;;
61003;SDS011;46889;37.310;13.582;2022-11-20T05:37:21;5.67;;;1.10;;
61003;SDS011;46889;37.310;13.582;2022-11-20T05:39:47;3.77;;;0.60;;
61003;SDS011;46889;37.310;13.582;2022-11-20T05:42:13;5.63;;;0.98;;
61003;SDS011;46889;37.310;13.582;2022-11-20T05:44:58;4.72;;;0.73;;
61003;SDS011;46889;37.310;13.582;2022-11-20T05:47:26;4.53;;;0.60;;
61003;SDS011;46889;37.310;13.582;2022-11-20T05:49:53;3.25;;;0.70;;
61003;SDS011;46889;37.310;13.582;2022-11-20T05:52:19;3.00;;;0.60;;
61003;SDS011;46889;37.310;13.582;2022-11-20T05:54:46;2.70;;;0.60;;
61003;SDS011;46889;37.310;13.582;2022-11-20T05:57:13;1.73;;;0.57;;
61003;SDS011;46889;37.310;13.582;2022-11-20T05:59:39;2.30;;;0.57;;
61003;SDS011;46889;37.310;13.582;2022-11-20T06:02:05;3.47;;;0.70;;
61003;SDS011;46889;37.310;13.582;2022-11-20T06:04:31;3.17;;;0.87;;
61003;SDS011;46889;37.310;13.582;2022-11-20T06:06:57;3.20;;;0.60;;
61003;SDS011;46889;37.310;13.582;2022-11-20T06:09:23;2.97;;;0.63;;
61003;SDS011;46889;37.310;13.582;2022-11-20T06:11:49;2.50;;;0.80;;
61003;SDS011;46889;37.310;13.582;2022-11-20T06:14:15;2.33;;;0.73;;
61003;SDS011;46889;37.310;13.582;2022-11-20T06:16:41;3.83;;;0.82;;
61003;SDS011;46889;37.310;13.582;2022-11-20T06:19:07;4.03;;;0.80;;
61003;SDS011;46889;37.310;13.582;2022-11-20T06:21:33;3.33;;;0.93;;
61003;SDS011;46889;37.310;13.582;2022-11-20T06:23:59;6.30;;;0.93;;
61003;SDS011;46889;37.310;13.582;2022-11-20T06:26:26;4.47;;;0.70;;
61003;SDS011;46889;37.310;13.582;2022-11-20T06:28:53;1.50;;;0.60;;
61003;SDS011;46889;37.310;13.582;2022-11-20T06:31:21;3.00;;;0.70;;
61003;SDS011;46889;37.310;13.582;2022-11-20T06:33:49;2.88;;;0.93;;
61003;SDS011;46889;37.310;13.582;2022-11-20T06:36:16;4.72;;;0.60;;
61003;SDS011;46889;37.310;13.582;2022-11-20T06:38:44;4.00;;;0.77;;
61003;SDS011;46889;37.310;13.582;2022-11-20T06:41:11;1.20;;;0.57;;
61003;SDS011;46889;37.310;13.582;2022-11-20T06:43:40;3.75;;;0.68;;
61003;SDS011;46889;37.310;13.582;2022-11-20T06:46:06;3.42;;;0.70;;
61003;SDS011;46889;37.310;13.582;2022-11-20T06:48:34;3.17;;;0.85;;
61003;SDS011;46889;37.310;13.582;2022-11-20T06:51:02;7.17;;;0.80;;
61003;SDS011;46889;37.310;13.582;2022-11-20T06:53:29;3.92;;;0.77;;
61003;SDS011;46889;37.310;13.582;2022-11-20T06:55:55;2.10;;;0.70;;
61003;SDS011;46889;37.310;13.582;2022-11-20T06:58:28;2.03;;;0.70;;
61003;SDS011;46889;37.310;13.582;2022-11-20T07:00:59;2.42;;;0.75;;
61003;SDS011;46889;37.310;13.582;2022-11-20T07:03:26;6.60;;;1.10;;
61003;SDS011;46889;37.310;13.582;2022-11-20T07:05:56;3.35;;;0.88;;
61003;SDS011;46889;37.310;13.582;2022-11-20T07:08:23;3.05;;;0.70;;
61003;SDS011;46889;37.310;13.582;2022-11-20T07:10:49;4.30;;;0.50;;
61003;SDS011;46889;37.310;13.582;2022-11-20T07:13:16;2.90;;;0.60;;
61003;SDS011;46889;37.310;13.582;2022-11-20T07:15:42;4.25;;;0.70;;
61003;SDS011;46889;37.310;13.582;2022-11-20T07:18:08;3.40;;;0.77;;
61003;SDS011;46889;37.310;13.582;2022-11-20T07:20:34;8.10;;;1.35;;
61003;SDS011;46889;37.310;13.582;2022-11-20T07:23:00;1.63;;;0.60;;
61003;SDS011;46889;37.310;13.582;2022-11-20T07:25:27;2.42;;;0.63;;
61003;SDS011;46889;37.310;13.582;2022-11-20T07:28:00;2.47;;;0.80;;
61003;SDS011;46889;37.310;13.582;2022-11-20T07:30:27;3.72;;;0.80;;
61003;SDS011;46889;37.310;13.582;2022-11-20T07:32:54;1.70;;;0.50;;
61003;SDS011;46889;37.310;13.582;2022-11-20T07:35:21;2.33;;;0.57;;
61003;SDS011;46889;37.310;13.582;2022-11-20T07:37:48;5.22;;;0.77;;
61003;SDS011;46889;37.310;13.582;2022-11-20T07:40:14;3.05;;;0.60;;
61003;SDS011;46889;37.310;13.582;2022-11-20T07:42:49;4.45;;;0.90;;
61003;SDS011;46889;37.310;13.582;2022-11-20T07:45:16;1.95;;;0.60;;
61003;SDS011;46889;37.310;13.582;2022-11-20T07:47:43;4.35;;;0.70;;
61003;SDS011;46889;37.310;13.582;2022-11-20T07:50:10;1.57;;;0.50;;
61003;SDS011;46889;37.310;13.582;2022-11-20T07:52:37;3.92;;;0.73;;
61003;SDS011;46889;37.310;13.582;2022-11-20T07:55:03;1.75;;;0.63;;
61003;SDS011;46889;37.310;13.582;2022-11-20T07:59:56;1.02;;;0.47;;
61003;SDS011;46889;37.310;13.582;2022-11-20T08:02:22;2.33;;;0.73;;
61003;SDS011;46889;37.310;13.582;2022-11-20T08:04:48;3.93;;;0.70;;
61003;SDS011;46889;37.310;13.582;2022-11-20T08:07:14;4.10;;;0.90;;
61003;SDS011;46889;37.310;13.582;2022-11-20T08:09:40;4.82;;;1.00;;
61003;SDS011;46889;37.310;13.582;2022-11-20T08:12:06;3.63;;;0.77;;
61003;SDS011;46889;37.310;13.582;2022-11-20T08:14:50;4.80;;;0.85;;
61003;SDS011;46889;37.310;13.582;2022-11-20T08:17:16;3.47;;;0.70;;
61003;SDS011;46889;37.310;13.582;2022-11-20T08:19:43;1.67;;;0.57;;
61003;SDS011;46889;37.310;13.582;2022-11-20T08:22:09;2.00;;;0.57;;
61003;SDS011;46889;37.310;13.582;2022-11-20T08:24:35;1.80;;;0.50;;
61003;SDS011;46889;37.310;13.582;2022-11-20T08:27:01;1.47;;;0.50;;
61003;SDS011;46889;37.310;13.582;2022-11-20T08:29:27;3.60;;;0.60;;
61003;SDS011;46889;37.310;13.582;2022-11-20T08:31:53;3.47;;;0.50;;
61003;SDS011;46889;37.310;13.582;2022-11-20T08:34:19;3.20;;;0.60;;
61003;SDS011;46889;37.310;13.582;2022-11-20T08:36:45;3.03;;;0.80;;
61003;SDS011;46889;37.310;13.582;2022-11-20T08:39:17;2.15;;;0.88;;
61003;SDS011;46889;37.310;13.582;2022-11-20T08:41:43;4.82;;;0.95;;
61003;SDS011;46889;37.310;13.582;2022-11-20T08:44:09;3.38;;;0.80;;
61003;SDS011;46889;37.310;13.582;2022-11-20T08:46:36;3.40;;;0.70;;
61003;SDS011;46889;37.310;13.582;2022-11-20T08:49:08;2.50;;;0.70;;
61003;SDS011;46889;37.310;13.582;2022-11-20T08:51:36;2.80;;;0.70;;
61003;SDS011;46889;37.310;13.582;2022-11-20T08:54:02;3.42;;;0.90;;
61003;SDS011;46889;37.310;13.582;2022-11-20T08:56:29;5.15;;;1.10;;
61003;SDS011;46889;37.310;13.582;2022-11-20T08:58:56;5.50;;;0.93;;
61003;SDS011;46889;37.310;13.582;2022-11-20T09:01:24;4.28;;;0.98;;
61003;SDS011;46889;37.310;13.582;2022-11-20T09:03:51;2.15;;;0.60;;
61003;SDS011;46889;37.310;13.582;2022-11-20T09:06:17;2.90;;;0.50;;
61003;SDS011;46889;37.310;13.582;2022-11-20T09:08:44;2.63;;;0.73;;
61003;SDS011;46889;37.310;13.582;2022-11-20T09:11:10;6.10;;;1.17;;
61003;SDS011;46889;37.310;13.582;2022-11-20T09:13:36;4.13;;;0.65;;
61003;SDS011;46889;37.310;13.582;2022-11-20T09:16:06;2.13;;;0.60;;
61003;SDS011;46889;37.310;13.582;2022-11-20T09:18:34;2.17;;;0.70;;
61003;SDS011;46889;37.310;13.582;2022-11-20T09:21:05;4.18;;;1.10;;
61003;SDS011;46889;37.310;13.582;2022-11-20T09:23:35;2.35;;;0.80;;
61003;SDS011;46889;37.310;13.582;2022-11-20T09:26:06;2.67;;;0.70;;
61003;SDS011;46889;37.310;13.582;2022-11-20T09:28:34;1.48;;;0.43;;
61003;SDS011;46889;37.310;13.582;2022-11-20T09:31:04;0.98;;;0.45;;
61003;SDS011;46889;37.310;13.582;2022-11-20T09:33:31;3.05;;;0.80;;
61003;SDS011;46889;37.310;13.582;2022-11-20T09:35:57;1.67;;;0.53;;
61003;SDS011;46889;37.310;13.582;2022-11-20T09:38:23;3.50;;;0.70;;
61003;SDS011;46889;37.310;13.582;2022-11-20T09:41:02;2.07;;;0.50;;
61003;SDS011;46889;37.310;13.582;2022-11-20T09:46:26;5.18;;;1.17;;
61003;SDS011;46889;37.310;13.582;2022-11-20T09:52:00;3.85;;;1.35;;
61003;SDS011;46889;37.310;13.582;2022-11-20T09:54:45;5.30;;;0.98;;
61003;SDS011;46889;37.310;13.582;2022-11-20T09:57:12;1.75;;;0.70;;
61003;SDS011;46889;37.310;13.582;2022-11-20T09:59:43;3.13;;;0.70;;
61003;SDS011;46889;37.310;13.582;2022-11-20T10:02:16;3.15;;;0.90;;
61003;SDS011;46889;37.310;13.582;2022-11-20T10:04:53;2.88;;;0.60;;
61003;SDS011;46889;37.310;13.582;2022-11-20T10:07:32;2.60;;;0.60;;
61003;SDS011;46889;37.310;13.582;2022-11-20T10:10:00;6.78;;;0.70;;
61003;SDS011;46889;37.310;13.582;2022-11-20T10:12:29;4.40;;;0.80;;
61003;SDS011;46889;37.310;13.582;2022-11-20T10:26:25;2.05;;;0.70;;
61003;SDS011;46889;37.310;13.582;2022-11-20T10:29:11;2.45;;;0.60;;
61003;SDS011;46889;37.310;13.582;2022-11-20T10:31:41;1.55;;;0.60;;
61003;SDS011;46889;37.310;13.582;2022-11-20T10:37:05;1.92;;;0.60;;
61003;SDS011;46889;37.310;13.582;2022-11-20T10:39:42;2.90;;;0.70;;
61003;SDS011;46889;37.310;13.582;2022-11-20T10:42:43;2.95;;;0.60;;
61003;SDS011;46889;37.310;13.582;2022-11-20T10:47:44;5.57;;;2.25;;
61003;SDS011;46889;37.310;13.582;2022-11-20T10:50:11;4.63;;;1.50;;
61003;SDS011;46889;37.310;13.582;2022-11-20T11:01:30;4.55;;;0.90;;
61003;SDS011;46889;37.310;13.582;2022-11-20T11:03:56;3.33;;;1.25;;
61003;SDS011;46889;37.310;13.582;2022-11-20T11:08:53;8.10;;;4.53;;
61003;SDS011;46889;37.310;13.582;2022-11-20T11:13:49;10.30;;;3.53;;
61003;SDS011;46889;37.310;13.582;2022-11-20T11:16:23;11.80;;;5.30;;
61003;SDS011;46889;37.310;13.582;2022-11-20T11:18:51;8.25;;;3.85;;
61003;SDS011;46889;37.310;13.582;2022-11-20T11:21:28;5.85;;;1.90;;
61003;SDS011;46889;37.310;13.582;2022-11-20T11:24:02;5.40;;;2.28;;
61003;SDS011;46889;37.310;13.582;2022-11-20T11:26:29;7.40;;;2.95;;
61003;SDS011;46889;37.310;13.582;2022-11-20T11:28:56;5.97;;;1.65;;
61003;SDS011;46889;37.310;13.582;2022-11-20T11:31:29;3.78;;;1.70;;
61003;SDS011;46889;37.310;13.582;2022-11-20T11:34:03;3.28;;;1.38;;
61003;SDS011;46889;37.310;13.582;2022-11-20T11:36:30;6.82;;;1.80;;
61003;SDS011;46889;37.310;13.582;2022-11-20T11:38:58;5.57;;;2.13;;
61003;SDS011;46889;37.310;13.582;2022-11-20T11:41:28;4.70;;;1.70;;
61003;SDS011;46889;37.310;13.582;2022-11-20T11:44:01;5.22;;;1.23;;
61003;SDS011;46889;37.310;13.582;2022-11-20T11:47:29;3.88;;;1.38;;
61003;SDS011;46889;37.310;13.582;2022-11-20T11:55:58;3.05;;;0.90;;
61003;SDS011;46889;37.310;13.582;2022-11-20T12:04:23;3.60;;;1.00;;
61003;SDS011;46889;37.310;13.582;2022-11-20T12:06:56;5.05;;;0.90;;
61003;SDS011;46889;37.310;13.582;2022-11-20T12:09:31;5.77;;;0.90;;
61003;SDS011;46889;37.310;13.582;2022-11-20T12:12:08;4.28;;;1.02;;
61003;SDS011;46889;37.310;13.582;2022-11-20T12:17:08;10.00;;;2.03;;
61003;SDS011;46889;37.310;13.582;2022-11-20T12:19:37;9.38;;;1.35;;
61003;SDS011;46889;37.310;13.582;2022-11-20T12:22:14;4.78;;;1.40;;
61003;SDS011;46889;37.310;13.582;2022-11-20T12:25:05;6.00;;;1.00;;
61003;SDS011;46889;37.310;13.582;2022-11-20T12:30:15;5.43;;;1.00;;
61003;SDS011;46889;37.310;13.582;2022-11-20T12:36:07;6.68;;;1.10;;
61003;SDS011;46889;37.310;13.582;2022-11-20T12:59:23;6.30;;;1.02;;
61003;SDS011;46889;37.310;13.582;2022-11-20T13:07:06;3.97;;;0.70;;
61003;SDS011;46889;37.310;13.582;2022-11-20T13:09:36;3.40;;;0.65;;
61003;SDS011;46889;37.310;13.582;2022-11-20T13:14:47;3.15;;;0.75;;
61003;SDS011;46889;37.310;13.582;2022-11-20T13:17:31;2.10;;;0.68;;
61003;SDS011;46889;37.310;13.582;2022-11-20T13:19:59;3.50;;;0.70;;
61003;SDS011;46889;37.310;13.582;2022-11-20T13:22:29;1.88;;;0.50;;
61003;SDS011;46889;37.310;13.582;2022-11-20T13:25:38;3.08;;;0.50;;
61003;SDS011;46889;37.310;13.582;2022-11-20T13:30:34;9.02;;;0.95;;
61003;SDS011;46889;37.310;13.582;2022-11-20T13:33:08;6.63;;;1.00;;
61003;SDS011;46889;37.310;13.582;2022-11-20T13:38:51;3.78;;;1.00;;
61003;SDS011;46889;37.310;13.582;2022-11-20T13:41:26;5.22;;;1.95;;
61003;SDS011;46889;37.310;13.582;2022-11-20T13:44:09;5.80;;;1.10;;
61003;SDS011;46889;37.310;13.582;2022-11-20T13:46:47;3.90;;;1.13;;
61003;SDS011;46889;37.310;13.582;2022-11-20T13:49:18;4.28;;;0.80;;
61003;SDS011;46889;37.310;13.582;2022-11-20T13:51:51;2.90;;;0.68;;
61003;SDS011;46889;37.310;13.582;2022-11-20T14:00:15;3.72;;;0.68;;
61003;SDS011;46889;37.310;13.582;2022-11-20T14:03:07;4.50;;;1.25;;
61003;SDS011;46889;37.310;13.582;2022-11-20T14:05:50;3.67;;;0.95;;
61003;SDS011;46889;37.310;13.582;2022-11-20T14:08:27;4.50;;;0.75;;
61003;SDS011;46889;37.310;13.582;2022-11-20T14:13:37;7.43;;;0.80;;
61003;SDS011;46889;37.310;13.582;2022-11-20T14:16:03;4.50;;;0.80;;
61003;SDS011;46889;37.310;13.582;2022-11-20T14:18:29;5.70;;;1.27;;
61003;SDS011;46889;37.310;13.582;2022-11-20T14:20:55;4.93;;;1.25;;
61003;SDS011;46889;37.310;13.582;2022-11-20T14:23:27;4.90;;;0.70;;
61003;SDS011;46889;37.310;13.582;2022-11-20T14:25:54;2.17;;;0.50;;
61003;SDS011;46889;37.310;13.582;2022-11-20T14:28:27;3.10;;;0.70;;
61003;SDS011;46889;37.310;13.582;2022-11-20T14:30:55;4.35;;;0.70;;
61003;SDS011;46889;37.310;13.582;2022-11-20T14:33:23;1.42;;;0.40;;
61003;SDS011;46889;37.310;13.582;2022-11-20T14:35:52;2.92;;;0.60;;
61003;SDS011;46889;37.310;13.582;2022-11-20T14:38:29;0.90;;;0.50;;
61003;SDS011;46889;37.310;13.582;2022-11-20T14:41:16;2.53;;;0.80;;
61003;SDS011;46889;37.310;13.582;2022-11-20T14:43:51;4.10;;;0.90;;
61003;SDS011;46889;37.310;13.582;2022-11-20T14:46:21;1.42;;;0.52;;
61003;SDS011;46889;37.310;13.582;2022-11-20T14:48:51;1.88;;;0.65;;
61003;SDS011;46889;37.310;13.582;2022-11-20T14:51:25;2.15;;;0.77;;
61003;SDS011;46889;37.310;13.582;2022-11-20T14:53:55;1.85;;;0.50;;
61003;SDS011;46889;37.310;13.582;2022-11-20T14:56:24;1.93;;;0.90;;
61003;SDS011;46889;37.310;13.582;2022-11-20T14:58:56;3.35;;;0.80;;
61003;SDS011;46889;37.310;13.582;2022-11-20T15:01:26;2.50;;;0.95;;
61003;SDS011;46889;37.310;13.582;2022-11-20T15:06:50;1.50;;;0.65;;
61003;SDS011;46889;37.310;13.582;2022-11-20T15:09:18;3.13;;;0.80;;
61003;SDS011;46889;37.310;13.582;2022-11-20T15:11:52;1.85;;;0.63;;
61003;SDS011;46889;37.310;13.582;2022-11-20T15:14:24;2.55;;;0.68;;
61003;SDS011;46889;37.310;13.582;2022-11-20T15:16:51;2.20;;;0.70;;
61003;SDS011;46889;37.310;13.582;2022-11-20T15:21:48;2.38;;;0.70;;
61003;SDS011;46889;37.310;13.582;2022-11-20T15:24:14;2.45;;;0.75;;
61003;SDS011;46889;37.310;13.582;2022-11-20T15:26:40;4.10;;;0.65;;
61003;SDS011;46889;37.310;13.582;2022-11-20T15:29:08;3.08;;;0.70;;
61003;SDS011;46889;37.310;13.582;2022-11-20T15:31:37;3.70;;;0.70;;
61003;SDS011;46889;37.310;13.582;2022-11-20T15:34:13;1.98;;;0.60;;
61003;SDS011;46889;37.310;13.582;2022-11-20T15:36:40;4.47;;;0.70;;
61003;SDS011;46889;37.310;13.582;2022-11-20T15:39:07;3.92;;;0.60;;
61003;SDS011;46889;37.310;13.582;2022-11-20T15:41:34;5.45;;;2.40;;
61003;SDS011;46889;37.310;13.582;2022-11-20T15:44:01;3.42;;;0.90;;
61003;SDS011;46889;37.310;13.582;2022-11-20T15:46:28;5.03;;;0.65;;
61003;SDS011;46889;37.310;13.582;2022-11-20T15:48:58;1.75;;;0.80;;
61003;SDS011;46889;37.310;13.582;2022-11-20T15:51:33;3.58;;;0.95;;
61003;SDS011;46889;37.310;13.582;2022-11-20T15:54:03;3.83;;;0.90;;
61003;SDS011;46889;37.310;13.582;2022-11-20T15:56:36;2.42;;;1.20;;
61003;SDS011;46889;37.310;13.582;2022-11-20T15:59:02;3.58;;;1.05;;
61003;SDS011;46889;37.310;13.582;2022-11-20T16:01:28;4.07;;;1.10;;
61003;SDS011;46889;37.310;13.582;2022-11-20T16:03:55;6.18;;;1.75;;
61003;SDS011;46889;37.310;13.582;2022-11-20T16:06:21;4.50;;;1.70;;
61003;SDS011;46889;37.310;13.582;2022-11-20T16:08:47;6.97;;;2.30;;
61003;SDS011;46889;37.310;13.582;2022-11-20T16:11:14;6.67;;;3.50;;
61003;SDS011;46889;37.310;13.582;2022-11-20T16:13:41;7.47;;;3.40;;
61003;SDS011;46889;37.310;13.582;2022-11-20T16:16:30;5.65;;;2.67;;
61003;SDS011;46889;37.310;13.582;2022-11-20T16:19:01;5.15;;;2.42;;
61003;SDS011;46889;37.310;13.582;2022-11-20T16:21:27;9.07;;;2.70;;
61003;SDS011;46889;37.310;13.582;2022-11-20T16:24:00;5.88;;;2.70;;
61003;SDS011;46889;37.310;13.582;2022-11-20T16:26:28;6.15;;;2.58;;
61003;SDS011;46889;37.310;13.582;2022-11-20T16:29:00;8.37;;;2.80;;
61003;SDS011;46889;37.310;13.582;2022-11-20T16:31:28;7.40;;;3.00;;
61003;SDS011;46889;37.310;13.582;2022-11-20T16:33:55;7.22;;;2.53;;
61003;SDS011;46889;37.310;13.582;2022-11-20T16:36:24;4.45;;;2.22;;
61003;SDS011;46889;37.310;13.582;2022-11-20T16:38:51;4.55;;;1.75;;
61003;SDS011;46889;37.310;13.582;2022-11-20T16:41:29;6.65;;;2.10;;
61003;SDS011;46889;37.310;13.582;2022-11-20T16:43:58;5.95;;;2.00;;